createdAt,value
2018-08-04T00:03:35.908Z,98169.00
2018-08-04T00:07:38.866Z,98163.00
2018-08-04T00:11:41.679Z,98160.00
2018-08-04T00:15:44.472Z,98159.00
2018-08-04T00:19:46.704Z,98155.00
2018-08-04T00:23:48.904Z,98153.00
2018-08-04T00:27:51.131Z,98156.00
2018-08-04T00:31:53.340Z,98156.00
2018-08-04T00:35:57.252Z,98157.00
2018-08-04T00:39:59.998Z,98155.00
2018-08-04T00:44:02.342Z,98161.00
2018-08-04T00:48:04.616Z,98156.00
2018-08-04T00:52:06.822Z,98161.00
2018-08-04T00:56:09.442Z,98158.00
2018-08-04T01:00:11.603Z,98154.00
2018-08-04T01:04:13.812Z,98156.00
2018-08-04T01:08:16.148Z,98154.00
2018-08-04T01:12:18.443Z,98142.00
2018-08-04T01:16:20.659Z,98144.00
2018-08-04T01:20:22.871Z,98142.00
2018-08-04T01:24:25.180Z,98146.00
2018-08-04T01:28:27.391Z,98144.00
2018-08-04T01:32:29.685Z,98139.00
2018-08-04T01:36:32.426Z,98148.00
2018-08-04T01:40:34.634Z,98142.00
2018-08-04T01:44:36.832Z,98128.00
2018-08-04T01:48:39.129Z,98126.00
2018-08-04T01:52:41.506Z,98128.00
2018-08-04T01:56:43.702Z,98121.00
2018-08-04T02:00:45.931Z,98120.00
2018-08-04T02:04:48.102Z,98112.00
2018-08-04T02:08:50.322Z,98106.00
2018-08-04T02:12:52.576Z,98107.00
2018-08-04T02:16:54.760Z,98094.00
2018-08-04T02:20:56.971Z,98099.00
2018-08-04T02:24:59.266Z,98094.00
2018-08-04T02:29:01.484Z,98098.00
2018-08-04T02:33:03.687Z,98099.00
2018-08-04T02:37:05.956Z,98090.00
2018-08-04T02:41:08.192Z,98096.00
2018-08-04T02:45:10.955Z,98085.00
2018-08-04T02:49:13.201Z,98086.00
2018-08-04T02:53:15.873Z,98089.00
2018-08-04T02:57:18.121Z,98085.00
2018-08-04T03:01:20.366Z,98089.00
2018-08-04T03:05:22.555Z,98084.00
2018-08-04T03:09:25.259Z,98080.00
2018-08-04T03:13:27.470Z,98087.00
2018-08-04T03:17:29.736Z,98082.00
2018-08-04T03:21:32.125Z,98089.00
2018-08-04T03:25:34.344Z,98081.00
2018-08-04T03:29:36.599Z,98089.00
2018-08-04T03:33:38.877Z,98093.00
2018-08-04T03:37:41.097Z,98083.00
2018-08-04T03:41:43.666Z,98084.00
2018-08-04T03:45:45.987Z,98083.00
2018-08-04T03:49:48.224Z,98092.00
2018-08-04T03:53:50.427Z,98093.00
2018-08-04T03:57:52.599Z,98102.00
2018-08-04T04:01:54.879Z,98099.00
2018-08-04T04:05:57.049Z,98092.00
2018-08-04T04:09:59.236Z,98097.00
2018-08-04T04:14:01.469Z,98103.00
2018-08-04T04:18:04.155Z,98103.00
2018-08-04T04:22:06.428Z,98106.00
2018-08-04T04:26:08.700Z,98104.00
2018-08-04T04:30:11.370Z,98105.00
2018-08-04T04:34:13.587Z,98108.00
2018-08-04T04:38:16.331Z,98114.00
2018-08-04T04:42:18.585Z,98116.00
2018-08-04T04:46:20.855Z,98112.00
2018-08-04T04:50:23.215Z,98118.00
2018-08-04T04:54:25.392Z,98116.00
2018-08-04T04:58:27.611Z,98124.00
2018-08-04T05:02:29.948Z,98117.00
2018-08-04T05:06:32.140Z,98127.00
2018-08-04T05:10:34.339Z,98117.00
2018-08-04T05:14:36.601Z,98127.00
2018-08-04T05:18:38.802Z,98134.00
2018-08-04T05:22:41.018Z,98135.00
2018-08-04T05:26:43.177Z,98135.00
2018-08-04T05:30:45.387Z,98128.00
2018-08-04T05:34:47.674Z,98133.00
2018-08-04T05:38:49.874Z,98134.00
2018-08-04T05:42:52.140Z,98130.00
2018-08-04T05:46:54.291Z,98127.00
2018-08-04T05:50:56.519Z,98137.00
2018-08-04T05:54:58.684Z,98142.00
2018-08-04T05:59:00.871Z,98137.00
2018-08-04T06:03:03.077Z,98137.00
2018-08-04T06:07:05.436Z,98141.00
2018-08-04T06:11:07.681Z,98152.00
2018-08-04T06:15:10.333Z,98156.00
2018-08-04T06:19:12.552Z,98155.00
2018-08-04T06:23:14.727Z,98156.00
2018-08-04T06:27:17.044Z,98150.00
2018-08-04T06:31:19.344Z,98151.00
2018-08-04T06:35:21.608Z,98151.00
2018-08-04T06:39:24.255Z,98160.00
2018-08-04T06:43:26.473Z,98161.00
2018-08-04T06:47:28.690Z,98161.00
2018-08-04T06:51:30.974Z,98161.00
2018-08-04T06:55:33.208Z,98155.00
2018-08-04T06:59:35.444Z,98162.00
2018-08-04T07:03:37.710Z,98168.00
2018-08-04T07:07:39.895Z,98171.00
2018-08-04T07:11:42.796Z,98169.00
2018-08-04T07:15:45.807Z,98158.00
2018-08-04T07:19:48.031Z,98162.00
2018-08-04T07:23:50.227Z,98158.00
2018-08-04T07:27:52.409Z,98161.00
2018-08-04T07:31:54.625Z,98160.00
2018-08-04T07:35:56.898Z,98156.00
2018-08-04T07:39:59.124Z,98160.00
2018-08-04T07:44:02.184Z,98170.00
2018-08-04T07:48:05.295Z,98163.00
2018-08-04T07:52:08.448Z,98166.00
2018-08-04T07:56:10.670Z,98164.00
2018-08-04T08:00:13.543Z,98160.00
2018-08-04T08:04:16.554Z,98161.00
2018-08-04T08:08:18.947Z,98162.00
2018-08-04T08:12:22.179Z,98156.00
2018-08-04T08:16:24.775Z,98156.00
2018-08-04T08:20:27.046Z,98158.00
2018-08-04T08:24:29.278Z,98157.00
2018-08-04T08:28:31.532Z,98162.00
2018-08-04T08:32:33.940Z,98163.00
2018-08-04T08:36:36.220Z,98161.00
2018-08-04T08:40:38.462Z,98166.00
2018-08-04T08:44:40.663Z,98156.00
2018-08-04T08:48:42.925Z,98163.00
2018-08-04T08:52:45.741Z,98158.00
2018-08-04T08:56:48.145Z,98161.00
2018-08-04T09:00:50.444Z,98156.00
2018-08-04T09:04:53.676Z,98149.00
2018-08-04T09:08:56.415Z,98156.00
2018-08-04T09:12:58.708Z,98151.00
2018-08-04T09:17:01.680Z,98151.00
2018-08-04T09:21:03.886Z,98152.00
2018-08-04T09:25:06.727Z,98143.00
2018-08-04T09:29:09.258Z,98144.00
2018-08-04T09:33:11.622Z,98147.00
2018-08-04T09:37:13.804Z,98146.00
2018-08-04T09:41:15.983Z,98153.00
2018-08-04T09:45:18.305Z,98156.00
2018-08-04T09:49:20.576Z,98151.00
2018-08-04T09:53:22.797Z,98163.00
2018-08-04T09:57:25.303Z,98160.00
2018-08-04T10:01:34.244Z,98162.00
2018-08-04T10:05:36.823Z,98165.00
2018-08-04T10:09:39.365Z,98153.00
2018-08-04T10:13:41.838Z,98156.00
2018-08-04T10:17:44.043Z,98158.00
2018-08-04T10:21:46.234Z,98154.00
2018-08-04T10:25:50.098Z,98153.00
2018-08-04T10:29:52.862Z,98162.00
2018-08-04T10:33:55.015Z,98155.00
2018-08-04T10:37:57.222Z,98149.00
2018-08-04T10:41:59.457Z,98152.00
2018-08-04T10:46:03.156Z,98154.00
2018-08-04T10:50:05.704Z,98148.00
2018-08-04T10:54:07.938Z,98140.00
2018-08-04T10:58:10.463Z,98140.00
2018-08-04T11:02:12.683Z,98146.00
2018-08-04T11:06:14.914Z,98139.00
2018-08-04T11:10:17.150Z,98141.00
2018-08-04T11:14:19.361Z,98139.00
2018-08-04T11:18:21.836Z,98147.00
2018-08-04T11:22:24.306Z,98139.00
2018-08-04T11:26:26.561Z,98135.00
2018-08-04T11:30:29.037Z,98148.00
2018-08-04T11:34:31.531Z,98144.00
2018-08-04T11:38:34.074Z,98146.00
2018-08-04T11:42:36.499Z,98146.00
2018-08-04T11:46:38.751Z,98147.00
2018-08-04T11:50:41.221Z,98139.00
2018-08-04T11:54:43.710Z,98141.00
2018-08-04T11:58:45.995Z,98135.00
2018-08-04T12:02:49.335Z,98135.00
2018-08-04T12:06:51.624Z,98130.00
2018-08-04T12:10:54.202Z,98120.00
2018-08-04T12:14:56.755Z,98122.00
2018-08-04T12:18:58.991Z,98113.00
2018-08-04T12:23:01.542Z,98109.00
2018-08-04T12:27:03.944Z,98108.00
2018-08-04T12:31:07.440Z,98099.00
2018-08-04T12:35:10.865Z,98101.00
2018-08-04T12:39:13.064Z,98090.00
2018-08-04T12:43:15.294Z,98090.00
2018-08-04T12:47:17.558Z,98089.00
2018-08-04T12:51:19.790Z,98095.00
2018-08-04T12:55:22.026Z,98093.00
2018-08-04T12:59:25.029Z,98089.00
2018-08-04T13:03:27.274Z,98094.00
2018-08-04T13:07:29.504Z,98083.00
2018-08-04T13:11:31.810Z,98058.00
2018-08-04T13:15:34.038Z,98074.00
2018-08-04T13:19:36.231Z,98071.00
2018-08-04T13:23:38.476Z,98066.00
2018-08-04T13:27:40.678Z,98059.00
2018-08-04T13:31:42.988Z,98062.00
2018-08-04T13:35:45.205Z,98063.00
2018-08-04T13:39:47.567Z,98059.00
2018-08-04T13:43:49.859Z,98058.00
2018-08-04T13:47:52.159Z,98060.00
2018-08-04T13:51:54.416Z,98058.00
2018-08-04T13:55:56.599Z,98066.00
2018-08-04T13:59:58.903Z,98054.00
2018-08-04T14:04:01.183Z,98059.00
2018-08-04T14:08:03.503Z,98057.00
2018-08-04T14:12:06.291Z,98059.00
2018-08-04T14:16:08.487Z,98062.00
2018-08-04T14:20:10.712Z,98067.00
2018-08-04T14:24:13.466Z,98068.00
2018-08-04T14:28:15.886Z,98056.00
2018-08-04T14:32:18.023Z,98057.00
2018-08-04T14:36:20.311Z,98053.00
2018-08-04T14:40:22.474Z,98045.00
2018-08-04T14:44:25.537Z,98040.00
2018-08-04T14:48:27.754Z,98047.00
2018-08-04T14:52:30.123Z,98033.00
2018-08-04T14:56:32.303Z,98040.00
2018-08-04T15:00:34.506Z,98034.00
2018-08-04T15:04:36.782Z,98032.00
2018-08-04T15:08:38.978Z,98034.00
2018-08-04T15:12:41.193Z,98024.00
2018-08-04T15:16:43.345Z,98028.00
2018-08-04T15:20:45.692Z,98031.00
2018-08-04T15:24:47.895Z,98029.00
2018-08-04T15:28:50.511Z,98030.00
2018-08-04T15:32:52.728Z,98025.00
2018-08-04T15:36:54.957Z,98031.00
2018-08-04T15:40:57.192Z,98023.00
2018-08-04T15:44:59.346Z,98016.00
2018-08-04T15:49:01.559Z,98029.00
2018-08-04T15:53:03.959Z,98026.00
2018-08-04T15:57:06.300Z,98023.00
2018-08-04T16:01:08.619Z,98013.00
2018-08-04T16:05:10.876Z,98022.00
2018-08-04T16:09:13.051Z,98015.00
2018-08-04T16:13:15.291Z,98003.00
2018-08-04T16:17:17.516Z,98009.00
2018-08-04T16:21:20.336Z,98017.00
2018-08-04T16:25:22.574Z,98007.00
2018-08-04T16:29:24.751Z,98007.00
2018-08-04T16:33:26.929Z,98006.00
2018-08-04T16:37:29.316Z,98022.00
2018-08-04T16:41:31.484Z,98029.00
2018-08-04T16:45:33.703Z,98022.00
2018-08-04T16:49:36.171Z,98027.00
2018-08-04T16:53:38.613Z,98026.00
2018-08-04T16:57:40.824Z,98032.00
2018-08-04T17:01:43.071Z,98035.00
2018-08-04T17:05:45.275Z,98040.00
2018-08-04T17:09:47.482Z,98050.00
2018-08-04T17:13:50.035Z,98049.00
2018-08-04T17:17:52.392Z,98049.00
2018-08-04T17:21:54.691Z,98044.00
2018-08-04T17:25:56.880Z,98048.00
2018-08-04T17:29:59.104Z,98051.00
2018-08-04T17:34:01.308Z,98060.00
2018-08-04T17:38:03.577Z,98052.00
2018-08-04T17:42:06.531Z,98053.00
2018-08-04T17:46:09.328Z,98053.00
2018-08-04T17:50:11.647Z,98053.00
2018-08-04T17:54:16.107Z,98060.00
2018-08-04T17:58:18.307Z,98066.00
2018-08-04T18:02:20.540Z,98078.00
2018-08-04T18:06:22.782Z,98080.00
2018-08-04T18:10:25.101Z,98080.00
2018-08-04T18:14:27.282Z,98080.00
2018-08-04T18:18:29.517Z,98089.00
2018-08-04T18:22:31.696Z,98094.00
2018-08-04T18:26:34.515Z,98096.00
2018-08-04T18:30:36.782Z,98098.00
2018-08-04T18:34:39.003Z,98100.00
2018-08-04T18:38:41.238Z,98105.00
2018-08-04T18:42:44.204Z,98114.00
2018-08-04T18:46:46.415Z,98113.00
2018-08-04T18:50:48.591Z,98108.00
2018-08-04T18:54:50.821Z,98120.00
2018-08-04T18:58:53.095Z,98120.00
2018-08-04T19:02:55.919Z,98126.00
2018-08-04T19:06:58.098Z,98131.00
2018-08-04T19:11:00.329Z,98140.00
2018-08-04T19:15:02.553Z,98136.00
2018-08-04T19:19:05.177Z,98138.00
2018-08-04T19:23:07.351Z,98146.00
2018-08-04T19:27:09.611Z,98144.00
2018-08-04T19:31:11.786Z,98151.00
2018-08-04T19:35:13.931Z,98151.00
2018-08-04T19:39:16.651Z,98153.00
2018-08-04T19:43:18.854Z,98154.00
2018-08-04T19:47:21.056Z,98151.00
2018-08-04T19:51:23.318Z,98156.00
2018-08-04T19:55:26.457Z,98164.00
2018-08-04T19:59:29.587Z,98163.00
2018-08-04T20:03:31.777Z,98167.00
2018-08-04T20:07:34.926Z,98173.00
2018-08-04T20:11:37.279Z,98179.00
2018-08-04T20:15:39.468Z,98192.00
2018-08-04T20:19:41.663Z,98190.00
2018-08-04T20:23:43.839Z,98193.00
2018-08-04T20:27:46.064Z,98194.00
2018-08-04T20:31:48.419Z,98189.00
2018-08-04T20:35:50.606Z,98191.00
2018-08-04T20:39:52.863Z,98202.00
2018-08-04T20:43:55.056Z,98194.00
2018-08-04T20:47:57.206Z,98195.00
2018-08-04T20:51:59.450Z,98208.00
2018-08-04T20:56:01.687Z,98202.00
2018-08-04T21:00:04.479Z,98211.00
2018-08-04T21:04:06.747Z,98208.00
2018-08-04T21:08:08.965Z,98204.00
2018-08-04T21:12:11.202Z,98204.00
2018-08-04T21:16:13.424Z,98199.00
2018-08-04T21:20:15.653Z,98206.00
2018-08-04T21:24:19.090Z,98201.00
2018-08-04T21:28:21.296Z,98199.00
2018-08-04T21:32:23.433Z,98202.00
2018-08-04T21:36:25.638Z,98205.00
2018-08-04T21:40:27.809Z,98205.00
2018-08-04T21:44:30.009Z,98213.00
2018-08-04T21:48:32.209Z,98215.00
2018-08-04T21:52:34.463Z,98215.00
2018-08-04T21:56:36.664Z,98219.00
2018-08-04T22:00:44.638Z,98222.00
2018-08-04T22:04:46.854Z,98222.00
2018-08-04T22:09:00.403Z,98228.00
2018-08-04T22:13:02.771Z,98233.00
2018-08-04T22:17:05.032Z,98235.00
2018-08-04T22:21:07.203Z,98235.00
2018-08-04T22:25:11.347Z,98236.00
2018-08-04T22:29:13.662Z,98232.00
2018-08-04T22:33:15.850Z,98240.00
2018-08-04T22:37:18.108Z,98240.00
2018-08-04T22:41:20.418Z,98246.00
2018-08-04T22:46:07.943Z,98242.00
2018-08-04T22:50:10.333Z,98240.00
2018-08-04T22:54:12.559Z,98236.00
2018-08-04T22:58:14.907Z,98242.00
2018-08-04T23:02:17.151Z,98234.00
2018-08-04T23:06:19.282Z,98241.00
2018-08-04T23:10:21.487Z,98237.00
2018-08-04T23:14:23.650Z,98235.00
2018-08-04T23:18:25.790Z,98243.00
2018-08-04T23:22:27.983Z,98248.00
2018-08-04T23:26:30.358Z,98241.00
2018-08-04T23:30:32.574Z,98237.00
2018-08-04T23:34:34.782Z,98242.00
2018-08-04T23:38:37.184Z,98253.00
2018-08-04T23:42:39.393Z,98240.00
2018-08-04T23:46:41.594Z,98239.00
2018-08-04T23:50:43.783Z,98240.00
2018-08-04T23:54:46.236Z,98233.00
2018-08-04T23:58:48.386Z,98226.00
